Temperatura - Umidità - Pioggia orarie dal 18-03-2019 al 26-03-2019

Intensità - Direzione vento orarie dal 18-03-2019 al 26-03-2019

Dati orari da stazione meteo dal 18-03-2019 al 26-03-2019

Nome Stazione Data Ora Temperatura [°C] Umidità [%] Pioggia [mm] Intensità vento[m/s] Direzione vento [°]
Savigliano 18-03-2019 01:00 6.9 91.1 0 0.3 34
Savigliano 18-03-2019 02:00 6.7 91.2 0 0.1 29
Savigliano 18-03-2019 03:00 6.7 90 0 0.2 30
Savigliano 18-03-2019 04:00 7.1 90.5 0 0.1 36
Savigliano 18-03-2019 05:00 6.9 59.5 0 0.4 29
Savigliano 18-03-2019 06:00 5.6 47.3 0 0.3 29
Savigliano 18-03-2019 07:00 4.1 62.9 0 0.6 31
Savigliano 18-03-2019 08:00 3.1 85.8 0 0.6 31
Savigliano 18-03-2019 09:00 7.3 75.7 0 0.7 31
Savigliano 18-03-2019 10:00 11.5 54.5 0 0.7 30
Savigliano 18-03-2019 11:00 14.1 30.6 0 1.6 42
Savigliano 18-03-2019 12:00 14.4 25.3 0 1.8 44
Savigliano 18-03-2019 13:00 14.6 23 0 1.9 49
Savigliano 18-03-2019 14:00 14.8 17.8 0 1.4 42
Savigliano 18-03-2019 15:00 14.5 17.7 0 2 42
Savigliano 18-03-2019 16:00 14.4 17.7 0 1.8 45
Savigliano 18-03-2019 17:00 14.6 24 0 2.5 34
Savigliano 18-03-2019 18:00 13.4 26.3 0 2.4 34
Savigliano 18-03-2019 19:00 11.8 28.2 0 2.3 35
Savigliano 18-03-2019 20:00 9.5 25.3 0 1.6 35
Savigliano 18-03-2019 21:00 9.5 26.2 0 0.3 35
Savigliano 18-03-2019 22:00 9.7 33.6 0 0.8 32
Savigliano 18-03-2019 23:00 9.3 32.9 0 0.7 33
Savigliano 19-03-2019 00:00 7.3 35.3 0 0.7 29
Savigliano 19-03-2019 01:00 7.1 42.2 0 0.3 29
Savigliano 19-03-2019 02:00 6.7 44.6 0 0.3 29
Savigliano 19-03-2019 03:00 5.2 46.3 0 0.3 29
Savigliano 19-03-2019 04:00 4.5 54.3 0 0.2 29
Savigliano 19-03-2019 05:00 4 54 0 0.5 29
Savigliano 19-03-2019 06:00 2 59.6 0 0.4 29
Savigliano 19-03-2019 07:00 1.6 65.3 0 0.3 29
Savigliano 19-03-2019 08:00 3.9 63.5 0 0.2 29
Savigliano 19-03-2019 09:00 6.8 61.4 0 0.2 29
Savigliano 19-03-2019 10:00 8.4 59 0 0.5 35
Savigliano 19-03-2019 11:00 9.6 55 0 0.6 34
Savigliano 19-03-2019 12:00 11 44.2 0 0.9 36
Savigliano 19-03-2019 13:00 11.5 35.6 0 1.7 36
Savigliano 19-03-2019 14:00 12.6 30.4 0 1.6 40
Savigliano 19-03-2019 15:00 12.2 26.8 0 1.9 47
Savigliano 19-03-2019 16:00 12.3 26.4 0 1.5 39
Savigliano 19-03-2019 17:00 12.1 28 0 1.4 36
Savigliano 19-03-2019 18:00 11.3 26.9 0 1.7 34
Savigliano 19-03-2019 19:00 9.5 37.6 0 1.3 33
Savigliano 19-03-2019 20:00 6.9 42.4 0 0.1 32
Savigliano 19-03-2019 21:00 7.1 42.8 0 0 32
Savigliano 19-03-2019 22:00 6.1 46.4 0 0.1 32
Savigliano 19-03-2019 23:00 5.2 50.8 0 0.1 195
Savigliano 20-03-2019 00:00 3.5 58.7 0 0 30
Savigliano 20-03-2019 01:00 4.4 55.2 0 0.5 288
Savigliano 20-03-2019 02:00 4.2 56.5 0 0.7 29
Savigliano 20-03-2019 03:00 4.1 58.1 0 0.8 286
Savigliano 20-03-2019 04:00 3.6 58 0 0.4 304
Savigliano 20-03-2019 05:00 4.3 56.5 0 0.6 29
Savigliano 20-03-2019 06:00 4.4 58.1 0 0.4 29
Savigliano 20-03-2019 07:00 4.3 60.7 0 0.1 29
Savigliano 20-03-2019 08:00 4.5 58.1 0 0.4 285
Savigliano 20-03-2019 09:00 5.8 57 0 0.4 30
Savigliano 20-03-2019 10:00 7.1 54.2 0 0.4 33
Savigliano 20-03-2019 11:00 9.5 51.4 0 0.8 40
Savigliano 20-03-2019 12:00 9.7 47.3 0 0.9 37
Savigliano 20-03-2019 13:00 10.8 43.1 0 1 33
Savigliano 20-03-2019 14:00 12 39.1 0 1.2 38
Savigliano 20-03-2019 15:00 12.2 33.4 0 1.1 34
Savigliano 20-03-2019 16:00 12.4 34.4 0 1.2 36
Savigliano 20-03-2019 17:00 12.3 36 0 1.1 44
Savigliano 20-03-2019 18:00 11.8 35.9 0 0.7 37
Savigliano 20-03-2019 19:00 9.7 35.6 0 0 35
Savigliano 20-03-2019 20:00 8.7 44.9 0 0.1 33
Savigliano 20-03-2019 21:00 7 50.6 0 0.3 31
Savigliano 20-03-2019 22:00 5.6 54.9 0 0.1 30
Savigliano 20-03-2019 23:00 2.4 65.8 0 0.1 30
Savigliano 21-03-2019 00:00 2.1 67.6 0 0.1 30
Savigliano 21-03-2019 01:00 2.1 69.4 0 0.2 30
Savigliano 21-03-2019 02:00 1.8 70.8 0 0.1 30
Savigliano 21-03-2019 03:00 2.4 66.3 0 0.6 29
Savigliano 21-03-2019 04:00 3.7 65.9 0 0.4 29
Savigliano 21-03-2019 05:00 2.9 65.3 0 0.2 29
Savigliano 21-03-2019 06:00 2.2 65.6 0 0.1 29
Savigliano 21-03-2019 07:00 2.2 65.9 0 0.1 29
Savigliano 21-03-2019 08:00 4.1 62.5 0 0.3 29
Savigliano 21-03-2019 09:00 6.8 57.5 0 1 29
Savigliano 21-03-2019 10:00 9.5 49.3 0 0.7 34
Savigliano 21-03-2019 11:00 10.2 44.1 0 0.8 36
Savigliano 21-03-2019 12:00 10.8 43.2 0 0.9 37
Savigliano 21-03-2019 13:00 12 37.1 0 0.8 32
Savigliano 21-03-2019 14:00 12.2 36.5 0 1 32
Savigliano 21-03-2019 15:00 12.9 35.3 0 1.3 37
Savigliano 21-03-2019 16:00 13.7 33.8 0 1.2 43
Savigliano 21-03-2019 17:00 14.4 32.6 0 0.8 162
Savigliano 21-03-2019 18:00 12.7 36.2 0 1 34
Savigliano 21-03-2019 19:00 12.2 36.3 0 0.1 28
Savigliano 21-03-2019 20:00 9.7 40.9 0 0.4 30
Savigliano 21-03-2019 21:00 7.9 48.3 0 0.6 30
Savigliano 21-03-2019 22:00 6.2 54.1 0 1 30
Savigliano 21-03-2019 23:00 3.7 60.6 0 0.5 36
Savigliano 22-03-2019 00:00 3.8 63.6 0 0.3 32
Savigliano 22-03-2019 01:00 2.1 63.4 0 0.5 30
Savigliano 22-03-2019 02:00 2.3 59.7 0 0.4 29
Savigliano 22-03-2019 03:00 1.7 64.9 0 0.4 29
Savigliano 22-03-2019 04:00 2.8 63.8 0 0.1 29
Savigliano 22-03-2019 05:00 0.2 69.7 0 0.4 30
Savigliano 22-03-2019 06:00 -0.7 68.4 0 0.6 30
Savigliano 22-03-2019 07:00 -0.4 70.6 0 0.6 31
Savigliano 22-03-2019 08:00 1.3 65.6 0 0.4 31
Savigliano 22-03-2019 09:00 6.4 58.1 0 0.4 31
Savigliano 22-03-2019 10:00 11.1 44.6 0 0.6 31
Savigliano 22-03-2019 11:00 13.4 36.3 0 0.4 31
Savigliano 22-03-2019 12:00 14.8 35.3 0 0.4 35
Savigliano 22-03-2019 13:00 15.8 31.7 0 0.6 39
Savigliano 22-03-2019 14:00 16.7 28.8 0 0.9 34
Savigliano 22-03-2019 15:00 17.4 27.1 0 0.8 35
Savigliano 22-03-2019 16:00 18.5 22.2 0 0.6 35
Savigliano 22-03-2019 17:00 19.4 21.5 0 0.4 34
Savigliano 22-03-2019 18:00 17.8 27.1 0 0.1 35
Savigliano 22-03-2019 19:00 16.1 27.1 0 0.1 34
Savigliano 22-03-2019 20:00 14.1 34 0 0.1 32
Savigliano 22-03-2019 21:00 12 37.6 0 1 30
Savigliano 22-03-2019 22:00 7.5 52.2 0 0.7 30
Savigliano 22-03-2019 23:00 4.4 65.5 0 1.2 31
Savigliano 23-03-2019 00:00 4.7 65.8 0 0.9 31
Savigliano 23-03-2019 01:00 4.5 60.3 0 0.6 31
Savigliano 23-03-2019 02:00 4.7 58.9 0 0.2 30
Savigliano 23-03-2019 03:00 2.7 64.1 0 0 30
Savigliano 23-03-2019 04:00 1.8 67.6 0 0.1 30
Savigliano 23-03-2019 05:00 2 67.2 0 0.4 30
Savigliano 23-03-2019 06:00 2 65.7 0 0.3 30
Savigliano 23-03-2019 07:00 1.9 64.5 0 0.6 30
Savigliano 23-03-2019 08:00 3.4 61.9 0 0.4 31
Savigliano 23-03-2019 09:00 9 53.9 0 0.2 31
Savigliano 23-03-2019 10:00 12.9 37.1 0 0.6 35
Savigliano 23-03-2019 11:00 14.5 35.7 0 0.6 43
Savigliano 23-03-2019 12:00 16.6 33.4 0 0.6 35
Savigliano 23-03-2019 13:00 17.7 27.4 0 0.7 31
Savigliano 23-03-2019 14:00 19.9 27.2 0 0.7 35
Savigliano 23-03-2019 15:00 19.9 27.6 0 0.9 268
Savigliano 23-03-2019 16:00 20.6 26.2 0 0.7 268
Savigliano 23-03-2019 17:00 19.8 27.9 0 0.7 228
Savigliano 23-03-2019 18:00 20.1 27.6 0 0.2 29
Savigliano 23-03-2019 19:00 17.5 29 0 0.2 29
Savigliano 23-03-2019 20:00 14.7 34 0 0 29
Savigliano 23-03-2019 21:00 12.2 43.6 0 0.3 30
Savigliano 23-03-2019 22:00 10.8 49.3 0 0.3 30
Savigliano 23-03-2019 23:00 7.6 61.9 0 0.3 30
Savigliano 24-03-2019 00:00 5.7 66.5 0 0.8 31
Savigliano 24-03-2019 01:00 5.4 65.9 0 0.3 31
Savigliano 24-03-2019 02:00 4.5 71.1 0 0.2 31
Savigliano 24-03-2019 03:00 4.5 70.4 0 0.4 31
Savigliano 24-03-2019 04:00 3.8 72 0 0.3 31
Savigliano 24-03-2019 05:00 3.9 72.3 0 0.6 31
Savigliano 24-03-2019 06:00 3.4 72 0 0.3 31
Savigliano 24-03-2019 07:00 1.9 71.6 0 0.4 31
Savigliano 24-03-2019 08:00 4.8 66.9 0 0.5 31
Savigliano 24-03-2019 09:00 10 60.5 0 0.2 31
Savigliano 24-03-2019 10:00 15.2 47.9 0 0.2 31
Savigliano 24-03-2019 11:00 17.2 36.3 0 0.7 38
Savigliano 24-03-2019 12:00 18.7 31.3 0 0.6 37
Savigliano 24-03-2019 13:00 19.8 27.5 0 0.9 36
Savigliano 24-03-2019 14:00 20.6 26.8 0 0.9 34
Savigliano 24-03-2019 15:00 22.3 18.4 0 0.7 34
Savigliano 24-03-2019 16:00 22.2 18.3 0 0.7 36
Savigliano 24-03-2019 17:00 22.4 18.6 0 0.5 33
Savigliano 24-03-2019 18:00 22.3 23.8 0 0.6 31
Savigliano 24-03-2019 19:00 19.6 29.7 0 0.1 29
Savigliano 24-03-2019 20:00 16.9 36.2 0 0.1 29
Savigliano 24-03-2019 21:00 14.7 41.1 0 0.1 29
Savigliano 24-03-2019 22:00 12 49.6 0 0.7 30
Savigliano 24-03-2019 23:00 10.6 53.5 0 0.8 31
Savigliano 25-03-2019 00:00 8.1 59.7 0 1.1 31
Savigliano 25-03-2019 01:00 8.4 58.8 0 1.1 30
Savigliano 25-03-2019 02:00 9.5 59.1 0 1.1 165
Savigliano 25-03-2019 03:00 9.7 57 0 1.3 169
Savigliano 25-03-2019 04:00 7.7 58.4 0 1.1 167
Savigliano 25-03-2019 05:00 7 65.8 0 0.8 163
Savigliano 25-03-2019 06:00 6.9 66.2 0 0.9 170
Savigliano 25-03-2019 07:00 7.4 65.7 0 1.2 176
Savigliano 25-03-2019 08:00 7.7 66.6 0 1.6 170
Savigliano 25-03-2019 09:00 11.1 64.6 0 1.3 155
Savigliano 25-03-2019 10:00 15.1 48.9 0 0.8 131
Savigliano 25-03-2019 11:00 18.3 36.8 0 0.3 131
Savigliano 25-03-2019 12:00 18.2 35.6 0 0.8 102
Savigliano 25-03-2019 13:00 19.6 36.3 0 1 164
Savigliano 25-03-2019 14:00 19.8 35.2 0 1.1 121
Savigliano 25-03-2019 15:00 20.5 28.8 0 0.8 132
Savigliano 25-03-2019 16:00 19.8 30 0 1 35
Savigliano 25-03-2019 17:00 19.8 39.3 0 1.5 81
Savigliano 25-03-2019 18:00 18.4 44.9 0 1.3 108

Riassuntivo giornaliero del 25-03-2019